Time;durP1;ratioP1;P1;durP2;ratioP2;P2;SDS_P1;SDS_P2;PMS_P1;PMS_P2;Temp;Humidity;BMP_temperature;BMP_pressure;BME280_temperature;BME280_humidity;BME280_pressure;Samples;Min_cycle;Max_cycle;Signal;HPM_P1;HPM_P2
2021/09/29 00:00:40;;;;;;;18.92;13.90;;;19.50;58.90;;;;;;5113330;28;20020;-65
2021/09/29 00:03:06;;;;;;;18.42;13.38;;;19.60;58.80;;;;;;5113980;28;20034;-64
2021/09/29 00:08:16;;;;;;;20.33;13.13;;;19.50;58.50;;;;;;5113624;28;20039;-68
2021/09/29 00:10:42;;;;;;;21.95;13.07;;;19.50;58.40;;;;;;5114300;28;20023;-67
2021/09/29 00:13:09;;;;;;;18.30;13.20;;;19.40;58.30;;;;;;5112504;28;20115;-65
2021/09/29 00:15:35;;;;;;;19.65;13.30;;;19.40;58.40;;;;;;5113919;28;20028;-67
2021/09/29 00:18:00;;;;;;;19.90;12.70;;;19.40;58.40;;;;;;5113553;28;20385;-67
2021/09/29 00:20:26;;;;;;;19.00;12.00;;;19.40;58.50;;;;;;5114014;28;20024;-66
2021/09/29 00:22:52;;;;;;;18.17;12.40;;;19.40;58.50;;;;;;5113986;28;20446;-66
2021/09/29 00:25:18;;;;;;;20.45;13.48;;;19.40;58.50;;;;;;5113156;28;20023;-68
2021/09/29 00:27:44;;;;;;;19.50;13.05;;;19.40;58.40;;;;;;5113996;28;20027;-65
2021/09/29 00:30:11;;;;;;;18.90;12.48;;;19.30;58.60;;;;;;5113530;28;20111;-65
2021/09/29 00:32:40;;;;;;;18.35;12.98;;;19.30;59.00;;;;;;5112629;28;20020;-66
2021/09/29 00:35:08;;;;;;;18.10;13.07;;;19.20;59.20;;;;;;5112524;28;20030;-66
2021/09/29 00:37:33;;;;;;;19.60;12.85;;;19.20;59.60;;;;;;5114271;28;20175;-66
2021/09/29 00:39:59;;;;;;;22.38;13.60;;;19.20;59.70;;;;;;5113328;28;20468;-66
2021/09/29 00:42:25;;;;;;;18.13;13.98;;;19.20;59.80;;;;;;5113574;28;20062;-67
2021/09/29 00:44:51;;;;;;;22.65;14.73;;;19.20;60.00;;;;;;5113147;28;20149;-66
2021/09/29 00:47:19;;;;;;;21.65;14.18;;;19.20;60.10;;;;;;5111413;28;20384;-67
2021/09/29 00:49:46;;;;;;;18.52;13.63;;;19.20;60.40;;;;;;5113666;28;20070;-67
2021/09/29 00:52:12;;;;;;;24.15;14.98;;;19.20;60.40;;;;;;5112806;28;20020;-66
2021/09/29 00:54:40;;;;;;;21.35;15.45;;;19.20;60.60;;;;;;5113347;28;20112;-66
2021/09/29 00:57:05;;;;;;;20.30;14.95;;;19.10;60.70;;;;;;5113118;28;20027;-67
2021/09/29 00:59:31;;;;;;;22.48;15.07;;;19.10;60.90;;;;;;5113128;28;20474;-66
2021/09/29 01:01:57;;;;;;;20.15;14.85;;;19.00;61.30;;;;;;5113518;28;20469;-66
2021/09/29 01:04:26;;;;;;;20.48;15.90;;;18.90;61.80;;;;;;5112786;28;20050;-68
2021/09/29 01:06:52;;;;;;;25.65;16.00;;;18.90;62.30;;;;;;5112057;28;20050;-65
2021/09/29 01:09:49;;;;;;;23.52;16.20;;;18.90;62.40;;;;;;5111777;28;20282;-68
2021/09/29 01:12:30;;;;;;;22.63;16.33;;;18.90;62.80;;;;;;5110718;28;20036;-66
2021/09/29 01:15:09;;;;;;;22.20;15.73;;;18.80;63.20;;;;;;5111836;28;20055;-66
2021/09/29 01:17:48;;;;;;;21.05;15.20;;;18.80;63.20;;;;;;5113171;28;20020;-67
2021/09/29 01:20:29;;;;;;;23.20;15.50;;;18.80;63.10;;;;;;5112690;28;20513;-65
2021/09/29 01:23:12;;;;;;;19.65;15.32;;;18.80;63.30;;;;;;5112826;28;20480;-66
2021/09/29 01:25:44;;;;;;;21.55;15.15;;;18.70;63.30;;;;;;5112646;28;20028;-66
2021/09/29 01:28:10;;;;;;;23.88;15.35;;;18.70;63.30;;;;;;5112100;28;20148;-66
2021/09/29 01:30:38;;;;;;;21.60;15.32;;;18.70;63.20;;;;;;5111518;28;20027;-68
2021/09/29 01:33:05;;;;;;;22.48;15.57;;;18.70;63.00;;;;;;5111914;28;20067;-67
2021/09/29 01:35:32;;;;;;;24.95;15.55;;;18.60;63.10;;;;;;5111221;28;20032;-66
2021/09/29 01:37:58;;;;;;;24.77;15.05;;;18.60;63.30;;;;;;5112458;28;20019;-66
2021/09/29 01:40:24;;;;;;;20.80;15.00;;;18.60;63.20;;;;;;5110809;28;20027;-66
2021/09/29 01:42:50;;;;;;;25.38;15.40;;;18.50;63.20;;;;;;5112841;28;20039;-66
2021/09/29 01:45:16;;;;;;;22.48;15.48;;;18.60;63.40;;;;;;5111862;28;20027;-67
2021/09/29 01:47:42;;;;;;;25.30;15.52;;;18.50;63.50;;;;;;5111988;28;20020;-67
2021/09/29 01:50:11;;;;;;;26.27;15.35;;;18.50;63.50;;;;;;5111827;28;20381;-68
2021/09/29 01:52:41;;;;;;;23.63;15.05;;;18.60;63.50;;;;;;5112645;28;20027;-66
2021/09/29 01:55:08;;;;;;;23.33;15.73;;;18.60;63.40;;;;;;5111730;28;20024;-66
2021/09/29 01:57:36;;;;;;;21.00;16.00;;;18.60;63.50;;;;;;5111347;28;20032;-68
2021/09/29 02:00:03;;;;;;;20.38;14.68;;;18.60;63.40;;;;;;5110935;28;20023;-66
2021/09/29 02:02:29;;;;;;;21.88;14.75;;;18.50;63.60;;;;;;5112406;28;20085;-67
2021/09/29 02:04:54;;;;;;;22.08;14.70;;;18.50;63.50;;;;;;5093999;28;20024;-66
2021/09/29 02:07:20;;;;;;;18.50;14.55;;;18.50;63.30;;;;;;5110833;28;20535;-67
2021/09/29 02:09:47;;;;;;;22.63;14.35;;;18.50;63.20;;;;;;5112585;28;20102;-67
2021/09/29 02:12:13;;;;;;;21.75;14.27;;;18.40;63.00;;;;;;5111967;28;20027;-66
2021/09/29 02:14:39;;;;;;;22.10;14.30;;;18.30;63.30;;;;;;5111933;28;20028;-66
2021/09/29 02:17:05;;;;;;;28.33;15.40;;;18.30;63.40;;;;;;5111945;28;20526;-66
2021/09/29 02:19:31;;;;;;;23.98;14.93;;;18.20;63.60;;;;;;5112415;28;20108;-66
2021/09/29 02:21:57;;;;;;;22.27;15.13;;;18.10;63.70;;;;;;5112331;28;20055;-66
2021/09/29 02:24:23;;;;;;;27.90;15.65;;;18.10;63.90;;;;;;5111678;28;20283;-67
2021/09/29 02:26:48;;;;;;;23.05;14.90;;;18.00;64.00;;;;;;5110912;28;20093;-65
2021/09/29 02:29:15;;;;;;;23.75;15.65;;;18.00;64.30;;;;;;5110721;28;20062;-66
2021/09/29 02:31:41;;;;;;;24.33;15.35;;;18.00;64.50;;;;;;5112081;28;20024;-68
2021/09/29 02:34:07;;;;;;;22.75;14.95;;;17.90;64.50;;;;;;5110070;28;20031;-67
2021/09/29 02:36:33;;;;;;;26.52;16.92;;;17.90;64.60;;;;;;5112117;28;20026;-67
2021/09/29 02:38:59;;;;;;;24.00;16.60;;;18.00;64.70;;;;;;5112417;28;20107;-67
2021/09/29 02:41:26;;;;;;;25.35;16.52;;;18.00;65.00;;;;;;5111524;28;20095;-67
2021/09/29 02:43:52;;;;;;;21.45;16.38;;;17.90;65.20;;;;;;5111029;28;20055;-66
2021/09/29 02:46:17;;;;;;;28.90;17.25;;;17.90;65.40;;;;;;5110918;28;20035;-67
2021/09/29 02:48:43;;;;;;;25.33;16.88;;;17.90;65.50;;;;;;5111857;28;20059;-66
2021/09/29 02:51:09;;;;;;;30.23;16.23;;;17.80;65.90;;;;;;5111775;28;20024;-65
2021/09/29 02:53:35;;;;;;;21.80;16.25;;;17.80;65.80;;;;;;5111867;28;20036;-67
2021/09/29 02:56:03;;;;;;;23.60;15.95;;;17.90;65.80;;;;;;5111723;28;20026;-66
2021/09/29 02:58:29;;;;;;;26.17;16.45;;;17.90;65.70;;;;;;5112574;28;20092;-65
2021/09/29 03:00:58;;;;;;;26.20;17.73;;;17.80;65.40;;;;;;5115511;28;20028;-67
2021/09/29 03:03:25;;;;;;;25.55;16.95;;;17.80;65.50;;;;;;5097410;28;20563;-67
2021/09/29 03:05:51;;;;;;;28.70;16.25;;;17.80;65.60;;;;;;5115767;28;20112;-67
2021/09/29 03:08:16;;;;;;;26.15;16.17;;;17.80;65.80;;;;;;5114919;28;20027;-66
2021/09/29 03:10:43;;;;;;;23.55;17.05;;;17.60;65.90;;;;;;5114388;28;20114;-68
2021/09/29 03:13:10;;;;;;;24.27;15.75;;;17.60;66.30;;;;;;5115145;28;20031;-66
2021/09/29 03:15:36;;;;;;;24.33;17.17;;;17.50;66.50;;;;;;5114915;28;20031;-69
2021/09/29 03:18:02;;;;;;;23.38;15.75;;;17.50;66.50;;;;;;5115531;28;20103;-65
2021/09/29 03:20:28;;;;;;;20.25;14.75;;;17.50;66.60;;;;;;5113707;28;20081;-66
2021/09/29 03:22:55;;;;;;;25.98;16.52;;;17.50;66.50;;;;;;5115619;28;20028;-67
2021/09/29 03:25:22;;;;;;;26.80;17.23;;;17.60;66.40;;;;;;5113540;28;20102;-67
2021/09/29 03:27:48;;;;;;;28.05;17.60;;;17.60;66.30;;;;;;5114995;27;20031;-67
2021/09/29 03:30:14;;;;;;;27.70;15.38;;;17.60;66.30;;;;;;5114566;28;20027;-66
2021/09/29 03:32:42;;;;;;;25.42;16.95;;;17.60;66.10;;;;;;5114927;28;20034;-67
2021/09/29 03:35:08;;;;;;;22.15;16.02;;;17.60;66.00;;;;;;5114465;28;20028;-68
2021/09/29 03:37:34;;;;;;;23.67;15.77;;;17.60;65.90;;;;;;5115264;28;20023;-65
2021/09/29 03:40:00;;;;;;;23.60;15.90;;;17.60;65.90;;;;;;5113525;28;20031;-67
2021/09/29 03:42:26;;;;;;;26.65;16.90;;;17.60;65.70;;;;;;5114975;28;20447;-67
2021/09/29 03:44:52;;;;;;;25.17;15.98;;;17.70;65.60;;;;;;5114244;28;20513;-66
2021/09/29 03:47:18;;;;;;;25.88;16.02;;;17.60;65.80;;;;;;5113988;27;20031;-68
2021/09/29 03:49:44;;;;;;;26.85;16.42;;;17.60;65.80;;;;;;5114662;28;20478;-66
2021/09/29 03:52:10;;;;;;;25.92;15.25;;;17.60;65.60;;;;;;5114664;28;20042;-66
2021/09/29 03:54:36;;;;;;;22.70;15.13;;;17.60;65.40;;;;;;5114305;28;20044;-67
2021/09/29 03:57:02;;;;;;;24.55;15.93;;;17.50;65.10;;;;;;5113543;28;20020;-66
2021/09/29 03:59:28;;;;;;;21.95;14.93;;;17.50;65.00;;;;;;5114269;28;20031;-67
2021/09/29 04:01:54;;;;;;;24.15;15.00;;;17.50;65.20;;;;;;5113055;28;20028;-66
2021/09/29 04:04:20;;;;;;;26.55;15.38;;;17.40;65.20;;;;;;5113619;28;20542;-66
2021/09/29 04:06:46;;;;;;;21.75;15.98;;;17.40;65.50;;;;;;5114100;28;20031;-67
2021/09/29 04:09:12;;;;;;;29.27;16.73;;;17.30;65.60;;;;;;5114239;28;20027;-65
2021/09/29 04:11:39;;;;;;;24.13;15.88;;;17.30;65.70;;;;;;5113529;28;20389;-68
2021/09/29 04:14:06;;;;;;;25.63;16.77;;;17.20;65.70;;;;;;5112752;28;20039;-66
2021/09/29 04:16:32;;;;;;;24.73;16.33;;;17.20;65.90;;;;;;5112498;28;20024;-66
2021/09/29 04:18:58;;;;;;;27.67;17.25;;;17.20;66.00;;;;;;5113891;28;20531;-65
2021/09/29 04:21:24;;;;;;;27.30;16.20;;;17.20;65.90;;;;;;5113616;28;20023;-69
2021/09/29 04:23:49;;;;;;;27.58;15.80;;;17.20;65.80;;;;;;5113965;28;20116;-66
2021/09/29 04:26:15;;;;;;;28.38;18.30;;;17.30;65.60;;;;;;5112993;28;20024;-66
2021/09/29 04:28:41;;;;;;;32.10;18.40;;;17.30;65.40;;;;;;5112786;28;20031;-67
2021/09/29 04:31:07;;;;;;;28.10;19.42;;;17.30;65.60;;;;;;5114032;28;20024;-67
2021/09/29 04:33:33;;;;;;;25.80;19.83;;;17.30;65.90;;;;;;5112170;28;20060;-67
2021/09/29 04:35:58;;;;;;;26.35;18.92;;;17.30;66.00;;;;;;5113280;28;20484;-66
2021/09/29 04:38:24;;;;;;;28.30;17.33;;;17.20;65.90;;;;;;5112973;28;20028;-67
2021/09/29 04:40:50;;;;;;;27.38;17.25;;;17.20;65.70;;;;;;5114236;28;20039;-66
2021/09/29 04:43:16;;;;;;;25.38;15.32;;;17.30;65.50;;;;;;5113148;28;20491;-65
2021/09/29 04:45:42;;;;;;;24.50;15.30;;;17.20;65.20;;;;;;5113348;28;20030;-68
2021/09/29 04:48:08;;;;;;;19.75;13.65;;;17.30;65.20;;;;;;5113710;28;20019;-68
2021/09/29 04:50:34;;;;;;;22.73;14.57;;;17.30;64.90;;;;;;5112939;28;20046;-66
2021/09/29 04:53:00;;;;;;;20.73;13.30;;;17.20;64.60;;;;;;5112263;28;20134;-66
2021/09/29 04:55:26;;;;;;;22.73;14.27;;;17.20;64.60;;;;;;5111441;28;20035;-66
2021/09/29 04:57:52;;;;;;;27.52;15.02;;;17.30;64.70;;;;;;5112280;28;20036;-67
2021/09/29 05:00:18;;;;;;;22.48;14.73;;;17.20;64.80;;;;;;5112551;28;20511;-65
2021/09/29 05:02:45;;;;;;;28.52;13.98;;;17.20;64.90;;;;;;5113309;28;20028;-66
2021/09/29 05:05:12;;;;;;;20.42;12.52;;;17.20;64.70;;;;;;5113109;28;20030;-66
2021/09/29 05:07:47;;;;;;;22.60;13.70;;;17.20;64.40;;;;;;5113214;28;20028;-67
2021/09/29 05:10:44;;;;;;;22.13;14.90;;;17.20;64.50;;;;;;5112963;28;20088;-64
2021/09/29 05:13:16;;;;;;;23.02;14.63;;;17.20;64.50;;;;;;5111901;28;20393;-67
2021/09/29 05:15:42;;;;;;;19.80;13.27;;;17.20;64.50;;;;;;5112804;28;20077;-64
2021/09/29 05:18:08;;;;;;;19.20;13.40;;;17.20;64.50;;;;;;5111831;28;20110;-66
2021/09/29 05:23:18;;;;;;;;;;;17.20;64.50;;;;;;5112271;28;20041;-66
2021/09/29 05:25:44;;;;;;;23.70;14.82;;;17.20;64.70;;;;;;5112391;28;19904;-67
2021/09/29 05:28:16;;;;;;;22.95;14.02;;;17.20;64.60;;;;;;5111543;28;20020;-67
2021/09/29 05:30:43;;;;;;;23.85;13.93;;;17.20;64.80;;;;;;5112984;28;20023;-65
2021/09/29 05:33:08;;;;;;;19.63;13.85;;;17.20;64.80;;;;;;5112293;28;20057;-66
2021/09/29 05:35:34;;;;;;;21.40;13.30;;;17.10;64.80;;;;;;5112281;28;20027;-66
2021/09/29 05:38:00;;;;;;;20.48;13.15;;;17.20;64.90;;;;;;5112309;28;20027;-66
2021/09/29 05:40:26;;;;;;;24.83;14.70;;;17.30;64.80;;;;;;5111556;28;20028;-67
2021/09/29 05:42:52;;;;;;;35.08;16.25;;;17.40;64.50;;;;;;5111316;28;20067;-68
2021/09/29 05:45:36;;;;;;;24.55;14.77;;;17.50;64.40;;;;;;5110291;28;20082;-66
2021/09/29 05:48:02;;;;;;;28.80;16.00;;;17.60;64.20;;;;;;5113031;28;20080;-68
2021/09/29 05:50:28;;;;;;;28.38;14.93;;;17.60;64.10;;;;;;5111763;28;20020;-68
2021/09/29 05:52:55;;;;;;;21.67;14.35;;;17.60;64.20;;;;;;5112640;28;20066;-67
2021/09/29 05:55:22;;;;;;;26.92;14.50;;;17.70;64.60;;;;;;5109779;28;20024;-67
2021/09/29 05:57:49;;;;;;;31.38;15.52;;;17.80;63.70;;;;;;5111816;28;20019;-68
2021/09/29 06:00:17;;;;;;;24.67;14.38;;;17.80;63.40;;;;;;5112588;28;20110;-67
2021/09/29 06:02:43;;;;;;;20.15;13.43;;;17.90;63.50;;;;;;5111849;28;20019;-66
2021/09/29 06:05:11;;;;;;;30.10;15.20;;;17.90;63.20;;;;;;5110489;28;20051;-67
2021/09/29 06:07:39;;;;;;;24.55;15.40;;;18.00;62.90;;;;;;5110985;28;20379;-69
2021/09/29 06:10:05;;;;;;;29.63;15.00;;;18.10;62.70;;;;;;5110634;28;20028;-67
2021/09/29 06:12:36;;;;;;;22.17;15.23;;;18.20;62.40;;;;;;5111791;28;20024;-67
2021/09/29 06:15:04;;;;;;;32.90;16.27;;;18.20;62.20;;;;;;5112046;28;20127;-67
2021/09/29 06:20:27;;;;;;;28.10;16.35;;;18.30;62.00;;;;;;5068557;28;20040;-66
2021/09/29 06:22:53;;;;;;;26.75;16.38;;;18.40;61.90;;;;;;5068550;28;20185;-66
2021/09/29 06:25:21;;;;;;;27.98;15.20;;;18.40;61.70;;;;;;5068737;28;20032;-65
2021/09/29 06:27:47;;;;;;;26.40;15.35;;;18.50;61.50;;;;;;5069008;28;20071;-69
2021/09/29 06:30:14;;;;;;;27.70;15.27;;;18.60;61.30;;;;;;5068758;28;20039;-67
2021/09/29 06:32:40;;;;;;;25.98;15.57;;;18.60;61.10;;;;;;5068389;28;20605;-67
2021/09/29 06:35:07;;;;;;;29.73;17.17;;;18.70;61.00;;;;;;5055700;28;20040;-68
2021/09/29 06:37:39;;;;;;;27.83;16.25;;;18.70;61.30;;;;;;5055646;28;20033;-67
2021/09/29 06:40:07;;;;;;;29.27;16.65;;;18.80;61.40;;;;;;5073031;28;20024;-67
2021/09/29 06:42:33;;;;;;;30.33;19.98;;;18.80;61.60;;;;;;5055249;28;20097;-68
2021/09/29 06:44:59;;;;;;;28.17;19.05;;;18.80;61.60;;;;;;5071813;28;20040;-66
2021/09/29 06:47:25;;;;;;;32.00;19.83;;;18.90;61.80;;;;;;5071584;28;20028;-68
2021/09/29 06:49:51;;;;;;;26.02;18.48;;;18.90;61.40;;;;;;5071493;28;20580;-67
2021/09/29 06:52:16;;;;;;;27.85;17.75;;;19.00;61.40;;;;;;5072854;28;20029;-68
2021/09/29 06:54:42;;;;;;;31.70;18.25;;;19.10;61.00;;;;;;5070087;28;20494;-66
2021/09/29 06:57:08;;;;;;;33.97;21.08;;;19.20;60.70;;;;;;5099148;28;20067;-65
2021/09/29 06:59:35;;;;;;;29.65;21.05;;;19.40;60.50;;;;;;5108794;28;20024;-66
2021/09/29 07:02:02;;;;;;;30.50;21.15;;;19.50;60.40;;;;;;5098025;28;20512;-68
2021/09/29 07:04:27;;;;;;;34.00;22.20;;;19.70;60.30;;;;;;5096068;28;20081;-68
2021/09/29 07:07:12;;;;;;;32.00;20.90;;;20.10;59.70;;;;;;5096436;28;20024;-67
2021/09/29 07:09:38;;;;;;;29.73;18.70;;;20.50;58.60;;;;;;5095536;28;20050;-67
2021/09/29 07:12:05;;;;;;;27.23;21.10;;;20.80;57.80;;;;;;5095519;28;20091;-67
2021/09/29 07:14:31;;;;;;;29.58;21.50;;;20.90;57.20;;;;;;5096000;28;20032;-65
2021/09/29 07:16:57;;;;;;;30.88;20.67;;;21.00;57.00;;;;;;5094349;28;20174;-65
2021/09/29 07:19:23;;;;;;;29.45;19.67;;;21.20;57.00;;;;;;5096279;28;20062;-65
2021/09/29 07:21:49;;;;;;;28.48;20.42;;;21.50;56.40;;;;;;5095777;28;20086;-66
2021/09/29 07:24:14;;;;;;;25.17;19.35;;;22.00;55.50;;;;;;5096176;28;20434;-67
2021/09/29 07:26:40;;;;;;;34.35;23.48;;;22.30;54.50;;;;;;5094608;28;20407;-67
2021/09/29 07:29:06;;;;;;;32.17;21.42;;;22.10;53.90;;;;;;5094456;28;20027;-66
2021/09/29 07:31:32;;;;;;;31.65;22.15;;;22.00;54.30;;;;;;5095555;28;20080;-67
2021/09/29 07:33:58;;;;;;;32.90;22.45;;;21.90;54.40;;;;;;5094879;28;20453;-66
2021/09/29 07:36:25;;;;;;;37.53;24.75;;;21.70;54.80;;;;;;5095684;27;20320;-66
2021/09/29 07:38:50;;;;;;;42.55;24.67;;;21.60;55.20;;;;;;5094507;28;20052;-67
2021/09/29 07:41:16;;;;;;;39.67;24.10;;;21.40;55.60;;;;;;5096391;28;20043;-66
2021/09/29 07:43:42;;;;;;;35.75;23.80;;;21.20;56.00;;;;;;5093358;28;20457;-68
2021/09/29 07:46:08;;;;;;;31.80;22.75;;;21.00;56.40;;;;;;5094330;28;20020;-66
2021/09/29 07:48:34;;;;;;;34.00;22.63;;;20.80;56.80;;;;;;5095789;28;20019;-66
2021/09/29 07:51:01;;;;;;;37.05;21.05;;;20.70;57.40;;;;;;5093831;28;20337;-67
2021/09/29 07:53:28;;;;;;;34.08;22.33;;;20.50;57.70;;;;;;5076442;28;20626;-67
2021/09/29 07:55:55;;;;;;;32.95;20.90;;;20.30;58.60;;;;;;5095391;28;20023;-66
2021/09/29 07:58:25;;;;;;;30.63;20.75;;;20.10;59.30;;;;;;5093836;28;20209;-65
2021/09/29 08:00:52;;;;;;;37.22;21.95;;;20.00;59.90;;;;;;5095694;28;20046;-66
2021/09/29 08:03:38;;;;;;;35.63;21.17;;;19.80;60.10;;;;;;5096174;28;20278;-66
2021/09/29 08:06:04;;;;;;;29.58;21.05;;;19.80;60.40;;;;;;5093347;28;20024;-66
2021/09/29 08:08:30;;;;;;;34.63;20.92;;;19.70;60.40;;;;;;5093273;28;20422;-66
2021/09/29 08:10:56;;;;;;;34.78;21.30;;;19.80;60.90;;;;;;5094336;28;20108;-65
2021/09/29 08:13:22;;;;;;;34.72;21.27;;;19.80;60.10;;;;;;5094947;28;20223;-66
2021/09/29 08:15:48;;;;;;;37.45;25.83;;;19.80;60.00;;;;;;5094721;28;20031;-67
2021/09/29 08:18:14;;;;;;;34.25;25.13;;;19.90;60.20;;;;;;5096004;28;20383;-66
2021/09/29 08:20:41;;;;;;;38.22;26.60;;;20.20;60.00;;;;;;5094630;28;20184;-66
2021/09/29 08:23:12;;;;;;;37.80;26.55;;;20.40;59.50;;;;;;5095294;28;20047;-67
2021/09/29 08:31:04;;;;;;;36.65;25.23;;;20.70;58.50;;;;;;5113078;28;20043;-67
2021/09/29 08:36:14;;;;;;;35.33;25.52;;;20.50;58.50;;;;;;5113832;28;20023;-66
2021/09/29 08:38:49;;;;;;;32.55;23.48;;;20.50;58.60;;;;;;5109816;28;20020;-67
2021/09/29 08:46:22;;;;;;;30.33;21.13;;;20.70;57.80;;;;;;5112417;28;20035;-67
2021/09/29 08:53:58;;;;;;;32.13;22.38;;;21.00;57.50;;;;;;5113285;28;20031;-66
2021/09/29 09:16:10;;;;;;;24.50;18.52;;;21.40;56.60;;;;;;5113203;28;20336;-65
2021/09/29 09:18:46;;;;;;;29.33;17.77;;;21.50;57.10;;;;;;5111186;28;20027;-66
2021/09/29 09:21:15;;;;;;;24.30;16.98;;;21.40;57.30;;;;;;5113512;28;20019;-67
2021/09/29 09:23:42;;;;;;;27.25;18.20;;;21.50;57.30;;;;;;5112822;28;20069;-66
2021/09/29 09:26:22;;;;;;;25.63;17.52;;;21.40;57.30;;;;;;5113083;28;20084;-66
2021/09/29 09:29:02;;;;;;;26.35;16.23;;;21.40;57.70;;;;;;5113171;28;20023;-68
2021/09/29 09:31:28;;;;;;;30.55;16.08;;;21.40;58.10;;;;;;5112820;28;20024;-65
2021/09/29 09:33:59;;;;;;;21.35;13.63;;;21.40;58.50;;;;;;5111089;28;20084;-67
2021/09/29 09:36:36;;;;;;;24.67;13.95;;;21.30;59.20;;;;;;5112811;28;20343;-68
2021/09/29 09:39:09;;;;;;;27.90;13.45;;;21.30;59.60;;;;;;5111390;28;20020;-67
2021/09/29 09:41:36;;;;;;;26.20;13.20;;;21.40;60.10;;;;;;5112424;28;20063;-69
2021/09/29 09:44:04;;;;;;;21.58;12.10;;;21.30;60.60;;;;;;5113120;28;20110;-65
2021/09/29 09:46:32;;;;;;;25.83;13.10;;;21.40;60.90;;;;;;5111051;28;20044;-67
2021/09/29 09:49:07;;;;;;;20.85;11.05;;;21.50;60.90;;;;;;5111820;28;20024;-69
2021/09/29 09:51:46;;;;;;;18.30;10.07;;;21.60;61.00;;;;;;5112023;28;20071;-68
2021/09/29 09:54:12;;;;;;;18.23;10.25;;;21.70;61.00;;;;;;5110717;28;20036;-69
2021/09/29 09:56:42;;;;;;;14.57;9.25;;;21.80;60.90;;;;;;5111463;28;20028;-68
2021/09/29 09:59:08;;;;;;;15.35;9.50;;;21.90;60.90;;;;;;5112266;28;20119;-69
2021/09/29 10:01:35;;;;;;;14.77;9.60;;;21.90;60.70;;;;;;5110994;28;20054;-66
2021/09/29 10:04:15;;;;;;;12.45;8.98;;;22.00;60.90;;;;;;5111970;28;20107;-68
2021/09/29 10:06:41;;;;;;;13.23;8.82;;;22.10;60.80;;;;;;5110082;28;20019;-67
2021/09/29 10:09:12;;;;;;;13.32;9.05;;;22.30;60.50;;;;;;5111498;28;20060;-68
2021/09/29 10:28:13;;;;;;;15.60;9.98;;;22.20;60.10;;;;;;5111204;28;20156;-69
2021/09/29 10:30:54;;;;;;;16.23;8.23;;;22.10;60.60;;;;;;5111045;28;20051;-67
2021/09/29 10:33:22;;;;;;;11.05;7.97;;;22.00;60.90;;;;;;5110512;28;20457;-68
2021/09/29 10:36:10;;;;;;;12.30;8.50;;;21.90;61.30;;;;;;5110297;28;20055;-69
2021/09/29 10:41:22;;;;;;;17.80;7.47;;;21.90;61.70;;;;;;5112142;28;20131;-69
2021/09/29 10:44:05;;;;;;;11.00;7.50;;;21.90;62.40;;;;;;5112090;28;20028;-69
2021/09/29 10:52:08;;;;;;;9.93;7.60;;;22.20;61.10;;;;;;5111838;28;20032;-69
2021/09/29 11:08:45;;;;;;;12.35;6.65;;;22.40;59.70;;;;;;5111788;28;20123;-68
2021/09/29 11:30:38;;;;;;;27.30;7.03;;;22.10;59.80;;;;;;5115096;28;20376;-69
2021/09/29 11:33:08;;;;;;;14.20;6.72;;;22.20;59.70;;;;;;5115099;27;20027;-68
2021/09/29 12:11:16;;;;;;;10.75;6.47;;;22.30;59.30;;;;;;5114756;28;20568;-67
2021/09/29 12:13:59;;;;;;;9.43;6.03;;;22.20;59.50;;;;;;5114147;28;20065;-70
2021/09/29 12:16:26;;;;;;;10.82;6.05;;;22.20;59.90;;;;;;5114539;28;20092;-69
2021/09/29 12:19:00;;;;;;;11.80;5.90;;;22.20;60.00;;;;;;5113589;28;20028;-67
2021/09/29 12:21:40;;;;;;;9.80;5.72;;;22.10;60.00;;;;;;5114412;28;20031;-67
2021/09/29 12:24:08;;;;;;;9.00;5.70;;;22.00;60.00;;;;;;5114160;28;20055;-68
2021/09/29 12:26:44;;;;;;;12.88;5.60;;;21.90;60.10;;;;;;5114016;28;20112;-68
2021/09/29 12:29:26;;;;;;;8.43;4.95;;;21.90;60.40;;;;;;5114521;28;20073;-68
2021/09/29 12:32:00;;;;;;;11.18;5.15;;;21.90;60.30;;;;;;5113748;28;20027;-68
2021/09/29 12:34:45;;;;;;;8.95;5.05;;;21.90;60.30;;;;;;5114896;28;20129;-67
2021/09/29 12:37:12;;;;;;;9.48;4.60;;;22.00;60.10;;;;;;5114543;28;20047;-67
2021/09/29 12:39:40;;;;;;;8.00;4.70;;;22.10;60.10;;;;;;5112800;28;20020;-67
2021/09/29 12:42:06;;;;;;;6.13;4.55;;;22.10;59.90;;;;;;5113343;28;20051;-68
2021/09/29 12:44:32;;;;;;;9.70;4.85;;;22.00;60.00;;;;;;5114001;28;20035;-67
2021/09/29 12:47:45;;;;;;;15.23;6.25;;;21.90;60.20;;;;;;5112956;28;20034;-69
2021/09/29 12:49:49;;;;;;;18.38;5.90;;;21.80;60.30;;;;;;5104568;28;20065;-67
2021/09/29 12:52:32;;;;;;;12.65;5.00;;;21.80;60.60;;;;;;5113195;28;20138;-67
2021/09/29 12:54:59;;;;;;;11.05;5.13;;;21.80;60.50;;;;;;5114147;28;20026;-68
2021/09/29 12:57:27;;;;;;;19.40;5.28;;;21.70;60.80;;;;;;5112443;28;20036;-68
2021/09/29 12:59:54;;;;;;;20.75;5.95;;;21.70;61.00;;;;;;5112382;28;20164;-67
2021/09/29 13:02:20;;;;;;;25.55;6.15;;;21.80;60.70;;;;;;5114410;28;20027;-69
2021/09/29 13:04:46;;;;;;;14.60;5.03;;;21.90;60.30;;;;;;5113202;28;20103;-68
2021/09/29 13:07:12;;;;;;;9.35;4.47;;;21.90;60.20;;;;;;5113308;28;20433;-68
2021/09/29 13:09:56;;;;;;;13.20;4.40;;;21.90;60.00;;;;;;5113501;28;20028;-67
2021/09/29 13:12:22;;;;;;;8.38;4.35;;;21.80;60.10;;;;;;5112799;28;20119;-69
2021/09/29 13:14:48;;;;;;;13.52;5.13;;;21.70;60.00;;;;;;5113157;28;20430;-67
2021/09/29 13:17:14;;;;;;;15.05;4.40;;;21.70;60.20;;;;;;5114082;28;20385;-69
2021/09/29 13:22:15;;;;;;;21.38;5.05;;;21.70;60.10;;;;;;5113264;28;20042;-67
2021/09/29 13:38:09;;;;;;;27.80;4.47;;;22.20;58.30;;;;;;5113257;28;20333;-68
2021/09/29 13:40:35;;;;;;;7.47;3.80;;;22.20;57.80;;;;;;5112671;28;20058;-70
2021/09/29 13:43:01;;;;;;;9.10;4.43;;;22.20;58.00;;;;;;5113654;27;20031;-69
2021/09/29 13:45:27;;;;;;;21.45;4.75;;;22.20;57.70;;;;;;5111405;28;20063;-69
2021/09/29 13:47:53;;;;;;;19.73;4.95;;;22.20;58.00;;;;;;5110946;28;20035;-70
2021/09/29 13:50:20;;;;;;;34.53;6.38;;;22.10;58.40;;;;;;5113606;28;20023;-69
2021/09/29 13:52:46;;;;;;;18.52;4.63;;;22.10;58.20;;;;;;5111099;28;20027;-70
2021/09/29 13:55:16;;;;;;;18.15;4.85;;;22.10;58.50;;;;;;5113094;27;20050;-70
2021/09/29 13:57:49;;;;;;;6.88;4.55;;;22.10;58.60;;;;;;5110924;28;20024;-69
2021/09/29 14:35:33;;;;;;;9.50;4.32;;;21.60;61.00;;;;;;5112549;28;20392;-71
2021/09/29 14:37:59;;;;;;;12.50;3.92;;;21.50;60.90;;;;;;5110912;28;20027;-70
2021/09/29 14:40:25;;;;;;;8.32;4.45;;;21.50;60.80;;;;;;5113148;28;20079;-70
2021/09/29 14:42:52;;;;;;;6.10;3.83;;;21.60;60.70;;;;;;5112759;28;20059;-71
2021/09/29 14:45:19;;;;;;;11.32;3.85;;;21.60;60.60;;;;;;5113595;28;20107;-69
2021/09/29 14:47:49;;;;;;;9.48;4.22;;;21.70;60.40;;;;;;5111228;28;20063;-68
2021/09/29 14:50:15;;;;;;;10.38;3.50;;;21.70;60.10;;;;;;5114559;28;20034;-69
2021/09/29 14:52:41;;;;;;;5.57;3.33;;;21.70;59.70;;;;;;5113073;28;20047;-69
2021/09/29 14:55:08;;;;;;;5.93;3.58;;;21.70;59.50;;;;;;5117043;28;20070;-69
2021/09/29 14:57:33;;;;;;;7.80;3.30;;;21.60;59.60;;;;;;5119176;28;20471;-69
2021/09/29 14:59:59;;;;;;;6.03;3.50;;;21.60;59.50;;;;;;5116416;28;20485;-69
2021/09/29 15:02:25;;;;;;;9.88;3.50;;;21.60;59.40;;;;;;5117409;28;20035;-69
2021/09/29 15:04:51;;;;;;;10.00;3.47;;;21.60;58.80;;;;;;5115873;28;20031;-69
2021/09/29 15:07:17;;;;;;;9.77;4.75;;;21.50;59.10;;;;;;5117165;27;20028;-69
2021/09/29 15:09:42;;;;;;;14.10;4.10;;;21.40;59.20;;;;;;5115128;28;20059;-69
2021/09/29 15:12:08;;;;;;;14.68;4.53;;;21.40;58.90;;;;;;5115397;28;20427;-70
2021/09/29 15:17:25;;;;;;;12.38;5.20;;;21.30;59.20;;;;;;5115886;28;20444;-69
2021/09/29 15:19:58;;;;;;;22.63;4.82;;;21.20;59.30;;;;;;5114158;28;20055;-70
2021/09/29 15:25:09;;;;;;;14.80;5.05;;;21.20;59.60;;;;;;5114686;27;20059;-73
2021/09/29 15:27:52;;;;;;;19.40;4.75;;;21.20;59.50;;;;;;5113528;27;20077;-65
2021/09/29 15:30:29;;;;;;;16.77;4.80;;;21.20;60.40;;;;;;5112219;28;20381;-66
2021/09/29 15:52:17;;;;;;;7.88;2.92;;;20.80;59.10;;;;;;5115519;28;20167;-72
2021/09/29 16:00:30;;;;;;;17.67;4.20;;;20.70;58.00;;;;;;5084144;28;20043;-71
2021/09/29 16:08:06;;;;;;;14.48;3.33;;;20.50;57.50;;;;;;5112979;28;20024;-71
2021/09/29 16:16:12;;;;;;;7.90;3.22;;;20.30;57.60;;;;;;5112784;28;20024;-69
2021/09/29 16:30:09;;;;;;;7.75;2.80;;;20.10;58.40;;;;;;5111195;27;20042;-67
2021/09/29 16:35:05;;;;;;;4.07;2.80;;;20.10;58.50;;;;;;5111540;27;20126;-67
2021/09/29 16:37:32;;;;;;;9.43;2.65;;;20.10;58.40;;;;;;5110367;28;20019;-66
2021/09/29 16:39:59;;;;;;;7.57;2.85;;;20.00;58.80;;;;;;5112413;27;20055;-70
2021/09/29 16:42:26;;;;;;;6.15;2.65;;;20.00;59.10;;;;;;5111171;28;20051;-69